Time;durP1;ratioP1;P1;durP2;ratioP2;P2;SDS_P1;SDS_P2;PMS_P1;PMS_P2;Temp;Humidity;BMP_temperature;BMP_pressure;BME280_temperature;BME280_humidity;BME280_pressure;Samples;Min_cycle;Max_cycle;Signal;HPM_P1;HPM_P2
2023/03/18 00:00:19;;;;;;;46.03;18.63;;;;;;;;;;5027376;28;20318;-50
2023/03/18 00:02:46;;;;;;;45.13;17.17;;;;;;;;;;5027470;28;20108;-52
2023/03/18 00:05:12;;;;;;;40.80;17.33;;;;;;;;;;5027662;28;20013;-53
2023/03/18 00:07:37;;;;;;;41.22;16.35;;;;;;;;;;5027438;28;20029;-53
2023/03/18 00:10:04;;;;;;;37.10;17.42;;;;;;;;;;5027411;28;20029;-55
2023/03/18 00:12:30;;;;;;;41.22;15.55;;;;;;;;;;5027232;28;20037;-53
2023/03/18 00:14:55;;;;;;;41.63;16.92;;;;;;;;;;5026907;28;20061;-54
2023/03/18 00:17:21;;;;;;;38.78;17.10;;;;;;;;;;5026903;28;20061;-54
2023/03/18 00:19:47;;;;;;;39.50;16.42;;;;;;;;;;5026958;28;20026;-54
2023/03/18 00:22:13;;;;;;;35.95;15.80;;;;;;;;;;5027085;28;20623;-52
2023/03/18 00:24:38;;;;;;;37.80;15.07;;;;;;;;;;5027173;28;20195;-53
2023/03/18 00:27:03;;;;;;;35.83;15.38;;;;;;;;;;5026838;28;20027;-54
2023/03/18 00:29:29;;;;;;;41.03;17.95;;;;;;;;;;5026567;28;20067;-54
2023/03/18 00:31:55;;;;;;;32.28;14.30;;;;;;;;;;5026804;28;20542;-56
2023/03/18 00:34:20;;;;;;;31.20;15.68;;;;;;;;;;5026897;28;20029;-55
2023/03/18 00:36:49;;;;;;;42.47;16.70;;;;;;;;;;5026860;28;20017;-55
2023/03/18 00:39:17;;;;;;;33.67;15.30;;;;;;;;;;5026970;28;20213;-54
2023/03/18 00:41:43;;;;;;;34.97;16.23;;;;;;;;;;5026536;28;20033;-55
2023/03/18 00:44:08;;;;;;;41.10;15.65;;;;;;;;;;5026438;28;20446;-56
2023/03/18 00:46:36;;;;;;;38.03;16.73;;;;;;;;;;5026611;28;20109;-56
2023/03/18 00:49:03;;;;;;;40.70;16.63;;;;;;;;;;5026486;28;20056;-56
2023/03/18 00:51:30;;;;;;;34.22;16.02;;;;;;;;;;5026905;28;20592;-57
2023/03/18 00:53:57;;;;;;;30.10;15.35;;;;;;;;;;5023818;28;20033;-56
2023/03/18 00:56:24;;;;;;;36.90;16.42;;;;;;;;;;5026331;28;20329;-57
2023/03/18 00:58:51;;;;;;;35.05;16.13;;;;;;;;;;5026666;28;20351;-56
2023/03/18 01:01:17;;;;;;;41.60;16.92;;;;;;;;;;5026383;28;20048;-56
2023/03/18 01:03:42;;;;;;;39.22;16.38;;;;;;;;;;5026702;28;20549;-56
2023/03/18 01:06:11;;;;;;;36.58;15.63;;;;;;;;;;5025859;28;20087;-54
2023/03/18 01:08:38;;;;;;;39.13;15.88;;;;;;;;;;5026694;28;20328;-56
2023/03/18 01:11:05;;;;;;;32.67;15.68;;;;;;;;;;5024746;28;20040;-56
2023/03/18 01:13:31;;;;;;;32.25;14.80;;;;;;;;;;5026661;28;20361;-55
2023/03/18 01:15:56;;;;;;;42.08;16.05;;;;;;;;;;5026599;28;20047;-57
2023/03/18 01:18:22;;;;;;;45.80;16.17;;;;;;;;;;5026307;28;20021;-56
2023/03/18 01:20:48;;;;;;;40.65;16.70;;;;;;;;;;5025938;28;20029;-56
2023/03/18 01:23:14;;;;;;;33.08;13.55;;;;;;;;;;5024684;28;20036;-52
2023/03/18 01:25:39;;;;;;;39.00;14.02;;;;;;;;;;5025838;28;20460;-57
2023/03/18 01:28:05;;;;;;;34.80;14.52;;;;;;;;;;5026015;28;20076;-57
2023/03/18 01:30:30;;;;;;;33.67;14.73;;;;;;;;;;5025698;28;20108;-57
2023/03/18 01:32:56;;;;;;;35.00;13.85;;;;;;;;;;5025820;28;20021;-54
2023/03/18 01:35:22;;;;;;;38.50;14.05;;;;;;;;;;5026129;28;20032;-57
2023/03/18 01:37:48;;;;;;;42.22;13.93;;;;;;;;;;5026319;28;20424;-56
2023/03/18 01:40:13;;;;;;;38.53;14.25;;;;;;;;;;5025843;28;20037;-56
2023/03/18 01:42:39;;;;;;;36.65;15.40;;;;;;;;;;5025883;28;20029;-56
2023/03/18 01:45:18;;;;;;;44.33;16.23;;;;;;;;;;5025865;28;20490;-56
2023/03/18 01:47:43;;;;;;;46.05;16.05;;;;;;;;;;5025943;28;20021;-56
2023/03/18 01:50:10;;;;;;;44.28;16.55;;;;;;;;;;5026230;28;20091;-57
2023/03/18 01:52:36;;;;;;;41.15;15.75;;;;;;;;;;5025491;28;20421;-53
2023/03/18 01:55:06;;;;;;;47.67;17.02;;;;;;;;;;5025980;28;20029;-57
2023/03/18 01:57:32;;;;;;;42.55;17.35;;;;;;;;;;5025664;28;20025;-56
2023/03/18 01:59:57;;;;;;;41.85;15.43;;;;;;;;;;5026019;28;20117;-56
2023/03/18 02:02:23;;;;;;;48.35;16.38;;;;;;;;;;5025833;28;20113;-55
2023/03/18 02:04:49;;;;;;;47.30;16.85;;;;;;;;;;5026264;28;20017;-56
2023/03/18 02:07:16;;;;;;;39.13;16.80;;;;;;;;;;5025801;28;20022;-57
2023/03/18 02:09:42;;;;;;;34.50;15.00;;;;;;;;;;5025737;28;20120;-56
2023/03/18 02:12:08;;;;;;;35.88;15.48;;;;;;;;;;5025924;28;20128;-57
2023/03/18 02:14:33;;;;;;;36.30;14.35;;;;;;;;;;5025823;28;20510;-57
2023/03/18 02:17:03;;;;;;;39.00;14.48;;;;;;;;;;5025966;28;20079;-54
2023/03/18 02:19:47;;;;;;;32.90;13.82;;;;;;;;;;5028130;28;20017;-57
2023/03/18 02:22:38;;;;;;;31.02;13.05;;;;;;;;;;5029294;28;20208;-56
2023/03/18 02:25:04;;;;;;;34.75;14.00;;;;;;;;;;5028260;28;20379;-55
2023/03/18 02:27:31;;;;;;;30.15;13.15;;;;;;;;;;5029567;28;20033;-57
2023/03/18 02:30:00;;;;;;;38.22;13.05;;;;;;;;;;5029063;28;20061;-56
2023/03/18 02:32:26;;;;;;;34.83;11.82;;;;;;;;;;5029478;28;20021;-55
2023/03/18 02:34:52;;;;;;;30.33;11.73;;;;;;;;;;5029386;28;20140;-57
2023/03/18 02:37:17;;;;;;;23.52;11.15;;;;;;;;;;5029034;28;20120;-52
2023/03/18 02:39:43;;;;;;;31.48;12.43;;;;;;;;;;5029030;28;20053;-55
2023/03/18 02:42:11;;;;;;;29.80;11.23;;;;;;;;;;5029181;28;20104;-53
2023/03/18 02:44:39;;;;;;;29.73;11.95;;;;;;;;;;5029150;28;20045;-55
2023/03/18 02:47:13;;;;;;;28.05;11.13;;;;;;;;;;5029004;28;20504;-56
2023/03/18 02:49:38;;;;;;;21.13;10.13;;;;;;;;;;5029095;28;20026;-56
2023/03/18 02:52:03;;;;;;;23.02;10.85;;;;;;;;;;5010000;28;20041;-56
2023/03/18 02:54:29;;;;;;;24.50;11.30;;;;;;;;;;5028663;28;20056;-54
2023/03/18 02:56:54;;;;;;;27.55;11.05;;;;;;;;;;5028707;28;20029;-56
2023/03/18 02:59:20;;;;;;;24.75;10.13;;;;;;;;;;5028790;28;20025;-56
2023/03/18 03:01:47;;;;;;;26.42;11.55;;;;;;;;;;5028786;28;20037;-57
2023/03/18 03:04:14;;;;;;;29.52;11.93;;;;;;;;;;5028631;28;20087;-56
2023/03/18 03:06:40;;;;;;;23.77;10.80;;;;;;;;;;5028647;28;20025;-55
2023/03/18 03:09:06;;;;;;;25.90;11.02;;;;;;;;;;5028587;28;20029;-57
2023/03/18 03:11:31;;;;;;;28.13;10.10;;;;;;;;;;5028847;28;20029;-57
2023/03/18 03:13:56;;;;;;;29.13;10.20;;;;;;;;;;5028415;28;20493;-57
2023/03/18 03:16:22;;;;;;;23.45;10.10;;;;;;;;;;5028624;28;20021;-56
2023/03/18 03:18:47;;;;;;;23.00;10.50;;;;;;;;;;5027174;28;20098;-57
2023/03/18 03:21:13;;;;;;;23.00;10.85;;;;;;;;;;5027999;28;20493;-56
2023/03/18 03:23:39;;;;;;;26.00;10.88;;;;;;;;;;5028613;28;20032;-57
2023/03/18 03:26:05;;;;;;;24.85;10.65;;;;;;;;;;5028353;28;20037;-56
2023/03/18 03:28:31;;;;;;;27.48;10.75;;;;;;;;;;5025545;28;20040;-56
2023/03/18 03:30:57;;;;;;;24.67;10.25;;;;;;;;;;5027622;28;20065;-58
2023/03/18 03:33:22;;;;;;;22.83;10.23;;;;;;;;;;5027944;28;20033;-56
2023/03/18 03:35:48;;;;;;;26.92;11.05;;;;;;;;;;5028019;28;20028;-56
2023/03/18 03:38:13;;;;;;;21.70;10.63;;;;;;;;;;5027915;28;20040;-56
2023/03/18 03:40:38;;;;;;;24.38;10.98;;;;;;;;;;5025391;28;20482;-56
2023/03/18 03:43:04;;;;;;;24.17;10.60;;;;;;;;;;5027768;28;20030;-57
2023/03/18 03:45:29;;;;;;;25.15;10.50;;;;;;;;;;5027467;28;20017;-54
2023/03/18 03:47:55;;;;;;;26.15;11.48;;;;;;;;;;5027646;28;20025;-57
2023/03/18 03:50:21;;;;;;;29.40;11.98;;;;;;;;;;5027891;28;20017;-55
2023/03/18 03:52:46;;;;;;;27.15;10.93;;;;;;;;;;5027532;28;20432;-58
2023/03/18 03:55:12;;;;;;;25.58;11.40;;;;;;;;;;5027507;28;20024;-54
2023/03/18 03:57:38;;;;;;;26.35;11.45;;;;;;;;;;5027550;28;20127;-54
2023/03/18 04:00:04;;;;;;;23.13;11.38;;;;;;;;;;5027513;28;20120;-54
2023/03/18 04:02:31;;;;;;;24.38;11.02;;;;;;;;;;5027545;28;20036;-57
2023/03/18 04:04:56;;;;;;;31.20;12.00;;;;;;;;;;5027454;28;20009;-57
2023/03/18 04:07:21;;;;;;;25.33;12.15;;;;;;;;;;5027287;28;20017;-55
2023/03/18 04:09:47;;;;;;;31.75;14.18;;;;;;;;;;5027519;28;20364;-55
2023/03/18 04:12:12;;;;;;;34.97;15.35;;;;;;;;;;5027573;28;20459;-56
2023/03/18 04:14:38;;;;;;;34.08;15.50;;;;;;;;;;5026852;28;20037;-54
2023/03/18 04:17:03;;;;;;;39.17;15.75;;;;;;;;;;5027034;28;20026;-53
2023/03/18 04:19:29;;;;;;;38.47;15.30;;;;;;;;;;5024255;28;20040;-56
2023/03/18 04:21:55;;;;;;;34.40;15.27;;;;;;;;;;5026769;28;20497;-56
2023/03/18 04:24:20;;;;;;;34.50;15.45;;;;;;;;;;5026997;28;20112;-54
2023/03/18 04:26:46;;;;;;;39.83;15.77;;;;;;;;;;5027213;28;20104;-52
2023/03/18 04:29:11;;;;;;;37.38;16.40;;;;;;;;;;5026490;28;20136;-58
2023/03/18 04:31:36;;;;;;;44.70;16.35;;;;;;;;;;5026975;28;20802;-56
2023/03/18 04:34:02;;;;;;;43.20;17.02;;;;;;;;;;5026610;28;20029;-55
2023/03/18 04:36:27;;;;;;;42.78;17.80;;;;;;;;;;5026691;28;20056;-55
2023/03/18 04:38:53;;;;;;;107.15;34.63;;;;;;;;;;5026624;28;20079;-53
2023/03/18 04:41:18;;;;;;;176.73;51.95;;;;;;;;;;5025984;28;20544;-54
2023/03/18 04:43:43;;;;;;;174.57;52.85;;;;;;;;;;5026519;28;20113;-54
2023/03/18 04:46:10;;;;;;;396.40;114.25;;;;;;;;;;5026657;28;20031;-54
2023/03/18 04:48:36;;;;;;;589.67;163.90;;;;;;;;;;5026205;28;20022;-56
2023/03/18 04:51:02;;;;;;;673.30;191.90;;;;;;;;;;5026517;28;20037;-55
2023/03/18 04:53:27;;;;;;;835.20;243.35;;;;;;;;;;5025393;28;20414;-53
2023/03/18 04:55:52;;;;;;;576.55;155.45;;;;;;;;;;5026649;28;20032;-55
2023/03/18 04:58:17;;;;;;;516.38;138.75;;;;;;;;;;5026257;28;20386;-52
2023/03/18 05:00:43;;;;;;;333.13;85.78;;;;;;;;;;5026138;28;20028;-55
2023/03/18 05:03:10;;;;;;;203.30;57.17;;;;;;;;;;5026628;28;20383;-54
2023/03/18 05:05:35;;;;;;;192.90;52.72;;;;;;;;;;5026203;28;20025;-54
2023/03/18 05:08:01;;;;;;;141.15;43.75;;;;;;;;;;5040357;28;20034;-55
2023/03/18 05:10:26;;;;;;;62.38;22.92;;;;;;;;;;5026236;28;20017;-56
2023/03/18 05:12:52;;;;;;;47.17;19.17;;;;;;;;;;5026146;28;20049;-55
2023/03/18 05:15:18;;;;;;;41.30;15.38;;;;;;;;;;5026257;28;20068;-54
2023/03/18 05:17:43;;;;;;;34.25;15.27;;;;;;;;;;5026170;28;20022;-54
2023/03/18 05:20:09;;;;;;;34.55;14.77;;;;;;;;;;5026435;28;20397;-54
2023/03/18 05:22:35;;;;;;;36.92;15.57;;;;;;;;;;5039984;28;20025;-57
2023/03/18 05:25:00;;;;;;;331.35;102.30;;;;;;;;;;5025771;28;20450;-55
2023/03/18 05:27:27;;;;;;;322.83;102.60;;;;;;;;;;5024718;28;20032;-56
2023/03/18 05:29:52;;;;;;;215.02;71.63;;;;;;;;;;5025608;28;20045;-55
2023/03/18 05:32:18;;;;;;;202.13;63.88;;;;;;;;;;5025583;28;20034;-56
2023/03/18 05:34:43;;;;;;;79.15;31.27;;;;;;;;;;5025865;28;20028;-57
2023/03/18 05:37:10;;;;;;;45.45;19.40;;;;;;;;;;5025610;28;20108;-58
2023/03/18 05:39:35;;;;;;;43.47;18.08;;;;;;;;;;5025813;28;20029;-56
2023/03/18 05:42:01;;;;;;;41.60;17.75;;;;;;;;;;5025655;28;20165;-57
2023/03/18 05:44:28;;;;;;;35.72;16.48;;;;;;;;;;5025681;28;20088;-56
2023/03/18 05:46:53;;;;;;;36.03;15.80;;;;;;;;;;5024486;28;20049;-58
2023/03/18 05:49:18;;;;;;;37.58;15.85;;;;;;;;;;5025997;28;20122;-56
2023/03/18 05:51:45;;;;;;;27.60;15.02;;;;;;;;;;5025880;28;20029;-59
2023/03/18 05:54:10;;;;;;;31.35;14.80;;;;;;;;;;5029684;28;20017;-58
2023/03/18 05:56:36;;;;;;;28.27;13.90;;;;;;;;;;5029681;28;20021;-55
2023/03/18 05:59:02;;;;;;;24.25;12.70;;;;;;;;;;5029726;28;20060;-59
2023/03/18 06:01:29;;;;;;;29.35;12.77;;;;;;;;;;5026654;28;20064;-59
2023/03/18 06:03:55;;;;;;;29.98;12.75;;;;;;;;;;5028633;28;20111;-58
2023/03/18 06:06:20;;;;;;;24.58;12.68;;;;;;;;;;5029353;28;20459;-59
2023/03/18 06:08:47;;;;;;;30.77;14.43;;;;;;;;;;5029798;28;20108;-58
2023/03/18 06:11:12;;;;;;;32.08;13.75;;;;;;;;;;5029596;28;20111;-56
2023/03/18 06:13:38;;;;;;;32.13;14.23;;;;;;;;;;5029890;28;20022;-59
2023/03/18 06:16:03;;;;;;;27.10;13.63;;;;;;;;;;5029721;28;20112;-58
2023/03/18 06:18:28;;;;;;;30.05;12.93;;;;;;;;;;5043135;28;20116;-59
2023/03/18 06:20:55;;;;;;;33.40;14.27;;;;;;;;;;5028807;28;20032;-59
2023/03/18 06:23:20;;;;;;;31.35;14.57;;;;;;;;;;5028920;28;20470;-59
2023/03/18 06:25:45;;;;;;;32.00;14.57;;;;;;;;;;5028918;28;20061;-59
2023/03/18 06:28:11;;;;;;;36.22;14.73;;;;;;;;;;5029311;28;20075;-58
2023/03/18 06:30:37;;;;;;;27.08;14.93;;;;;;;;;;5029349;28;20152;-59
2023/03/18 06:33:03;;;;;;;26.35;13.35;;;;;;;;;;5028836;28;20104;-60
2023/03/18 06:35:30;;;;;;;23.58;12.82;;;;;;;;;;5029033;28;20079;-58
2023/03/18 06:37:55;;;;;;;26.40;13.18;;;;;;;;;;5028961;28;20340;-59
2023/03/18 06:40:21;;;;;;;22.80;13.07;;;;;;;;;;5029092;28;20029;-58
2023/03/18 06:42:46;;;;;;;25.73;13.25;;;;;;;;;;5028588;28;20021;-60
2023/03/18 06:45:11;;;;;;;26.90;14.07;;;;;;;;;;5029033;28;20437;-58
2023/03/18 06:47:38;;;;;;;27.45;12.80;;;;;;;;;;5028652;28;20057;-59
2023/03/18 06:50:04;;;;;;;27.02;12.77;;;;;;;;;;5028932;28;20025;-59
2023/03/18 06:52:29;;;;;;;22.20;12.30;;;;;;;;;;5027224;28;20433;-54
2023/03/18 06:54:55;;;;;;;25.42;12.50;;;;;;;;;;5028418;28;20025;-59
2023/03/18 06:57:20;;;;;;;21.98;12.15;;;;;;;;;;5028841;28;20232;-59
2023/03/18 06:59:46;;;;;;;21.75;11.63;;;;;;;;;;5028542;28;20368;-58
2023/03/18 07:02:12;;;;;;;24.40;12.15;;;;;;;;;;5028604;28;20017;-60
2023/03/18 07:04:37;;;;;;;24.17;12.20;;;;;;;;;;5027607;28;20402;-60
2023/03/18 07:07:03;;;;;;;31.33;13.68;;;;;;;;;;5025855;28;20041;-58
2023/03/18 07:09:30;;;;;;;28.58;12.75;;;;;;;;;;5028473;28;20022;-59
2023/03/18 07:11:55;;;;;;;26.17;12.93;;;;;;;;;;5028597;28;20487;-60
2023/03/18 07:14:21;;;;;;;22.60;11.02;;;;;;;;;;5028406;28;20117;-60
2023/03/18 07:16:46;;;;;;;25.73;11.57;;;;;;;;;;5028461;28;20674;-60
2023/03/18 07:19:11;;;;;;;25.08;11.90;;;;;;;;;;5028003;28;20136;-60
2023/03/18 07:21:38;;;;;;;21.42;10.55;;;;;;;;;;5028040;28;20120;-60
2023/03/18 07:24:04;;;;;;;22.75;11.55;;;;;;;;;;5027905;28;20026;-60
2023/03/18 07:26:30;;;;;;;22.25;12.65;;;;;;;;;;5027795;28;20296;-60
2023/03/18 07:28:56;;;;;;;27.15;11.13;;;;;;;;;;5027616;28;20067;-61
2023/03/18 07:31:21;;;;;;;20.98;11.32;;;;;;;;;;5027542;28;20100;-60
2023/03/18 07:33:47;;;;;;;24.00;11.07;;;;;;;;;;5028046;28;20120;-60
2023/03/18 07:36:14;;;;;;;20.67;10.52;;;;;;;;;;5027863;28;20032;-60
2023/03/18 07:38:39;;;;;;;25.50;11.48;;;;;;;;;;5027516;28;20086;-60
2023/03/18 07:41:05;;;;;;;24.00;11.23;;;;;;;;;;5027738;28;20029;-60
2023/03/18 07:43:30;;;;;;;22.13;10.73;;;;;;;;;;5028038;28;20021;-60
2023/03/18 07:45:55;;;;;;;22.95;11.20;;;;;;;;;;5027791;28;20463;-60
2023/03/18 07:48:21;;;;;;;21.83;11.88;;;;;;;;;;5027817;28;20025;-58
2023/03/18 07:50:46;;;;;;;21.98;10.50;;;;;;;;;;5027327;28;20033;-60
2023/03/18 07:53:12;;;;;;;23.85;11.52;;;;;;;;;;5041327;28;20037;-59
2023/03/18 07:55:37;;;;;;;22.50;11.65;;;;;;;;;;5027574;28;20033;-61
2023/03/18 07:58:03;;;;;;;23.17;11.63;;;;;;;;;;5027632;28;20112;-60
2023/03/18 08:00:29;;;;;;;29.45;12.27;;;;;;;;;;5027506;28;20052;-61
2023/03/18 08:02:55;;;;;;;17.75;9.30;;;;;;;;;;5027622;28;20021;-60
2023/03/18 08:05:20;;;;;;;23.63;10.25;;;;;;;;;;5027396;28;20032;-60
2023/03/18 08:07:46;;;;;;;21.73;10.50;;;;;;;;;;5027343;28;20359;-59
2023/03/18 08:10:11;;;;;;;15.85;9.70;;;;;;;;;;5027322;28;20067;-61
2023/03/18 08:12:37;;;;;;;18.85;10.60;;;;;;;;;;5027526;28;20064;-61
2023/03/18 08:15:03;;;;;;;20.02;10.15;;;;;;;;;;5027143;28;20026;-60
2023/03/18 08:17:28;;;;;;;23.58;10.05;;;;;;;;;;5027323;28;20017;-61
2023/03/18 08:19:54;;;;;;;19.67;9.85;;;;;;;;;;5027225;28;20107;-61
2023/03/18 08:22:19;;;;;;;16.85;9.55;;;;;;;;;;5027110;28;20112;-61
2023/03/18 08:24:45;;;;;;;14.40;9.10;;;;;;;;;;5027031;28;20048;-60
2023/03/18 08:27:10;;;;;;;15.30;9.48;;;;;;;;;;5027029;28;20017;-61
2023/03/18 08:29:35;;;;;;;17.55;9.70;;;;;;;;;;5026744;28;20537;-61
2023/03/18 08:32:01;;;;;;;14.68;9.30;;;;;;;;;;5026867;28;20033;-60
2023/03/18 08:34:27;;;;;;;16.08;9.20;;;;;;;;;;5026644;28;20464;-61
2023/03/18 08:36:52;;;;;;;16.58;9.77;;;;;;;;;;5026776;28;20102;-59
2023/03/18 08:39:18;;;;;;;15.57;9.43;;;;;;;;;;5026661;28;20021;-62
2023/03/18 08:41:44;;;;;;;13.77;7.72;;;;;;;;;;5026751;28;20033;-61
2023/03/18 08:44:10;;;;;;;18.90;11.32;;;;;;;;;;5026814;28;20557;-60
2023/03/18 08:46:38;;;;;;;14.55;8.65;;;;;;;;;;5025252;28;20430;-60
2023/03/18 08:49:04;;;;;;;15.23;9.60;;;;;;;;;;5026373;28;20025;-58
2023/03/18 08:51:29;;;;;;;15.60;9.20;;;;;;;;;;5026355;28;20243;-58
2023/03/18 08:53:55;;;;;;;14.45;9.13;;;;;;;;;;5026623;28;20018;-61
2023/03/18 08:56:20;;;;;;;15.55;8.68;;;;;;;;;;5026966;28;20021;-59
2023/03/18 08:58:47;;;;;;;16.45;8.55;;;;;;;;;;5026554;28;20103;-58
2023/03/18 09:01:13;;;;;;;14.82;8.60;;;;;;;;;;5026561;28;20075;-58
2023/03/18 09:03:38;;;;;;;17.73;8.98;;;;;;;;;;5026765;28;20026;-61
2023/03/18 09:06:04;;;;;;;14.35;8.23;;;;;;;;;;5026411;28;20026;-60
2023/03/18 09:08:31;;;;;;;22.08;8.70;;;;;;;;;;5024753;28;20036;-59
2023/03/18 09:10:57;;;;;;;14.40;8.30;;;;;;;;;;5025166;28;20076;-60
2023/03/18 09:13:22;;;;;;;17.33;8.85;;;;;;;;;;5026345;28;20490;-60
2023/03/18 09:15:48;;;;;;;17.63;8.95;;;;;;;;;;5026241;28;20017;-61
2023/03/18 09:18:13;;;;;;;15.13;8.75;;;;;;;;;;5026079;28;20060;-60
2023/03/18 09:20:39;;;;;;;20.02;11.35;;;;;;;;;;5025659;28;20029;-60
2023/03/18 09:23:05;;;;;;;15.27;7.88;;;;;;;;;;5026304;28;20033;-60
2023/03/18 09:25:31;;;;;;;14.43;7.85;;;;;;;;;;5026262;28;20063;-59
2023/03/18 09:30:41;;;;;;;10.70;7.00;;;;;;;;;;5038025;28;20067;-60
2023/03/18 09:33:08;;;;;;;12.95;7.03;;;;;;;;;;5025950;28;20390;-61
2023/03/18 09:35:33;;;;;;;11.38;6.65;;;;;;;;;;5025946;28;20630;-61
2023/03/18 09:37:58;;;;;;;70.38;33.75;;;;;;;;;;5026044;28;20390;-58
2023/03/18 09:40:29;;;;;;;13.00;6.45;;;;;;;;;;5026010;28;20029;-61
2023/03/18 09:43:14;;;;;;;53.72;28.25;;;;;;;;;;5026155;28;20231;-61
2023/03/18 09:45:58;;;;;;;25.80;15.57;;;;;;;;;;5025727;28;20051;-60
2023/03/18 09:48:26;;;;;;;10.35;5.90;;;;;;;;;;5025839;28;20358;-61
2023/03/18 09:51:10;;;;;;;12.17;6.43;;;;;;;;;;5025713;28;20083;-60
2023/03/18 09:53:45;;;;;;;25.48;16.63;;;;;;;;;;5025973;28;20014;-59
2023/03/18 09:56:33;;;;;;;47.67;43.83;;;;;;;;;;5025649;28;20109;-61
2023/03/18 09:59:15;;;;;;;27.73;12.55;;;;;;;;;;5025970;28;20018;-60
2023/03/18 10:01:42;;;;;;;11.68;6.45;;;;;;;;;;5025892;28;20490;-60
2023/03/18 10:04:10;;;;;;;14.05;6.38;;;;;;;;;;5025866;28;20426;-61
2023/03/18 10:06:36;;;;;;;50.33;24.80;;;;;;;;;;5006249;28;20434;-61
2023/03/18 10:09:04;;;;;;;120.60;58.28;;;;;;;;;;5025660;28;20021;-60
2023/03/18 10:11:35;;;;;;;12.15;7.13;;;;;;;;;;5025730;28;20124;-59
2023/03/18 10:14:07;;;;;;;9.48;6.40;;;;;;;;;;5025761;28;20037;-60
2023/03/18 10:16:44;;;;;;;95.03;86.35;;;;;;;;;;5026128;28;20426;-58
2023/03/18 10:19:09;;;;;;;8.68;4.93;;;;;;;;;;5025489;28;20383;-57
2023/03/18 10:21:47;;;;;;;54.70;47.58;;;;;;;;;;5025008;28;20026;-61
2023/03/18 10:24:15;;;;;;;43.38;33.40;;;;;;;;;;5025486;28;20112;-61
2023/03/18 10:26:49;;;;;;;5.83;4.87;;;;;;;;;;5025792;28;20573;-58
2023/03/18 10:29:33;;;;;;;7.78;5.10;;;;;;;;;;5025020;28;20335;-59
2023/03/18 10:32:10;;;;;;;8.27;4.95;;;;;;;;;;5025648;28;20087;-61
2023/03/18 10:35:02;;;;;;;8.57;5.28;;;;;;;;;;5025353;28;20017;-59
2023/03/18 10:37:33;;;;;;;7.13;4.85;;;;;;;;;;5002437;28;20030;-60
2023/03/18 10:39:59;;;;;;;8.85;5.13;;;;;;;;;;5003939;28;20038;-59
2023/03/18 10:42:25;;;;;;;9.88;5.15;;;;;;;;;;5006096;28;20040;-60
2023/03/18 10:44:53;;;;;;;9.52;4.97;;;;;;;;;;5006055;28;20061;-60
2023/03/18 10:47:19;;;;;;;8.43;4.93;;;;;;;;;;5006246;28;20048;-59
2023/03/18 10:50:12;;;;;;;7.20;4.50;;;;;;;;;;5006151;28;20561;-59
2023/03/18 10:52:44;;;;;;;6.10;4.50;;;;;;;;;;5005867;28;20557;-60
2023/03/18 10:55:14;;;;;;;7.15;4.07;;;;;;;;;;5006044;28;20096;-60
2023/03/18 10:57:40;;;;;;;8.15;4.70;;;;;;;;;;5005958;28;20045;-59
2023/03/18 11:00:15;;;;;;;10.13;4.15;;;;;;;;;;4989471;28;20060;-60
2023/03/18 11:02:40;;;;;;;7.38;4.15;;;;;;;;;;4989481;28;20061;-60
2023/03/18 11:05:21;;;;;;;8.02;4.07;;;;;;;;;;5005514;28;20523;-59
2023/03/18 11:07:59;;;;;;;7.95;5.13;;;;;;;;;;5005733;28;20152;-60
2023/03/18 11:10:27;;;;;;;6.35;4.32;;;;;;;;;;5005727;28;20030;-58
2023/03/18 11:13:01;;;;;;;7.80;4.50;;;;;;;;;;5005322;28;20022;-59
2023/03/18 11:15:27;;;;;;;12.80;5.05;;;;;;;;;;5027376;28;20411;-59
2023/03/18 11:17:57;;;;;;;9.68;4.43;;;;;;;;;;5028205;28;20028;-59
2023/03/18 11:20:30;;;;;;;7.88;4.43;;;;;;;;;;5027792;28;20572;-59
2023/03/18 11:23:10;;;;;;;9.60;4.07;;;;;;;;;;5025173;28;20033;-60
2023/03/18 11:25:36;;;;;;;8.60;4.25;;;;;;;;;;5025108;28;20033;-60
2023/03/18 11:28:05;;;;;;;7.38;4.47;;;;;;;;;;5024854;28;20393;-60
2023/03/18 11:30:42;;;;;;;5.88;3.30;;;;;;;;;;5024836;28;20411;-59
2023/03/18 11:33:11;;;;;;;5.70;4.13;;;;;;;;;;5024839;28;20530;-58
2023/03/18 11:35:56;;;;;;;5.07;3.58;;;;;;;;;;5025180;28;20091;-59
2023/03/18 11:38:27;;;;;;;9.35;3.85;;;;;;;;;;5025148;28;20043;-59
2023/03/18 11:40:53;;;;;;;10.15;5.05;;;;;;;;;;5024514;28;20080;-58
2023/03/18 11:43:20;;;;;;;6.28;4.30;;;;;;;;;;5024647;28;20041;-60
2023/03/18 11:45:55;;;;;;;11.15;4.93;;;;;;;;;;5024675;28;20033;-59
2023/03/18 11:48:26;;;;;;;6.32;3.50;;;;;;;;;;5024587;28;20068;-57
2023/03/18 11:51:24;;;;;;;5.25;4.10;;;;;;;;;;5024045;28;20025;-59
2023/03/18 11:53:59;;;;;;;4.13;3.15;;;;;;;;;;4985277;28;20113;-60
2023/03/18 11:56:36;;;;;;;6.13;3.65;;;;;;;;;;4985072;28;20065;-59
2023/03/18 11:59:19;;;;;;;7.95;4.28;;;;;;;;;;4985099;28;20027;-60
2023/03/18 12:01:48;;;;;;;5.45;3.55;;;;;;;;;;4985225;28;20387;-58
2023/03/18 12:04:31;;;;;;;22.83;11.38;;;;;;;;;;4984991;28;20117;-59
2023/03/18 12:07:11;;;;;;;8.07;4.65;;;;;;;;;;4985029;28;20471;-58
2023/03/18 12:09:55;;;;;;;7.47;4.72;;;;;;;;;;4984786;28;20034;-59
2023/03/18 12:12:37;;;;;;;7.78;3.90;;;;;;;;;;4984978;28;20070;-55
2023/03/18 12:15:20;;;;;;;7.47;3.80;;;;;;;;;;4984664;28;20019;-59
2023/03/18 12:17:58;;;;;;;7.10;4.20;;;;;;;;;;4984789;28;20431;-58
2023/03/18 12:20:26;;;;;;;5.53;3.60;;;;;;;;;;4984535;28;20042;-59
2023/03/18 12:23:10;;;;;;;6.03;4.00;;;;;;;;;;4984220;28;20415;-59
2023/03/18 12:25:53;;;;;;;7.32;3.45;;;;;;;;;;4951921;28;20026;-58
2023/03/18 12:28:22;;;;;;;7.72;3.33;;;;;;;;;;4985301;28;20022;-58
2023/03/18 12:31:03;;;;;;;5.35;3.10;;;;;;;;;;5026457;28;20045;-60
2023/03/18 12:33:28;;;;;;;8.20;3.42;;;;;;;;;;5026107;28;20040;-59
2023/03/18 12:35:57;;;;;;;4.65;3.20;;;;;;;;;;5023723;28;20029;-59
2023/03/18 12:38:25;;;;;;;8.38;3.35;;;;;;;;;;5026039;28;20048;-59
2023/03/18 12:40:59;;;;;;;7.45;3.28;;;;;;;;;;5025844;28;20142;-59
2023/03/18 12:43:36;;;;;;;5.93;3.03;;;;;;;;;;5026189;28;20422;-59
2023/03/18 12:46:28;;;;;;;4.25;2.97;;;;;;;;;;5025860;28;20063;-56
2023/03/18 12:49:02;;;;;;;8.95;3.47;;;;;;;;;;5003522;28;20038;-59
2023/03/18 12:51:29;;;;;;;6.22;3.00;;;;;;;;;;5003481;28;20405;-58
2023/03/18 12:53:57;;;;;;;5.22;2.92;;;;;;;;;;5003410;28;20668;-59
2023/03/18 12:56:23;;;;;;;23.70;7.35;;;;;;;;;;5003444;28;20083;-60
2023/03/18 12:58:53;;;;;;;18.80;6.78;;;;;;;;;;5003178;28;20079;-59
2023/03/18 13:01:19;;;;;;;5.43;3.35;;;;;;;;;;4986673;28;20034;-59
2023/03/18 13:03:58;;;;;;;7.85;3.83;;;;;;;;;;5002806;28;20566;-59
2023/03/18 13:06:29;;;;;;;14.85;8.02;;;;;;;;;;5003353;28;20037;-58
2023/03/18 13:09:07;;;;;;;9.20;3.53;;;;;;;;;;5003059;28;20037;-56
2023/03/18 13:11:32;;;;;;;10.55;5.13;;;;;;;;;;5003418;28;20038;-60
2023/03/18 13:13:59;;;;;;;10.27;4.00;;;;;;;;;;5003280;28;20084;-59
2023/03/18 13:16:26;;;;;;;48.13;43.78;;;;;;;;;;4986777;28;20574;-58
2023/03/18 13:18:54;;;;;;;5.82;3.53;;;;;;;;;;5002976;28;20034;-58
2023/03/18 13:21:21;;;;;;;309.27;279.30;;;;;;;;;;5002607;28;20627;-60
2023/03/18 13:24:05;;;;;;;9.63;3.90;;;;;;;;;;5003053;28;20034;-58
2023/03/18 13:26:48;;;;;;;77.07;43.00;;;;;;;;;;5021389;28;20029;-59
2023/03/18 13:29:32;;;;;;;5.80;4.20;;;;;;;;;;5024898;28;20036;-59
2023/03/18 13:31:57;;;;;;;6.60;4.22;;;;;;;;;;5025816;28;20032;-56
2023/03/18 13:34:42;;;;;;;7.85;4.38;;;;;;;;;;5025302;28;20071;-60
2023/03/18 13:37:20;;;;;;;16.08;6.85;;;;;;;;;;5025425;28;20022;-60
2023/03/18 13:40:04;;;;;;;6.22;4.05;;;;;;;;;;5024084;28;20116;-59
2023/03/18 13:42:34;;;;;;;5.80;4.20;;;;;;;;;;5022767;28;20037;-59
2023/03/18 13:45:00;;;;;;;8.75;3.80;;;;;;;;;;5023944;28;20415;-60
2023/03/18 13:47:28;;;;;;;6.43;4.50;;;;;;;;;;5025502;28;20032;-59
2023/03/18 13:50:02;;;;;;;6.15;5.10;;;;;;;;;;5025391;28;20254;-59
2023/03/18 13:52:35;;;;;;;7.18;4.72;;;;;;;;;;5025696;28;20330;-59
2023/03/18 13:55:03;;;;;;;7.53;4.40;;;;;;;;;;5025099;28;20072;-58
2023/03/18 13:57:28;;;;;;;8.80;5.03;;;;;;;;;;5025206;28;20014;-59
2023/03/18 14:00:13;;;;;;;7.85;4.45;;;;;;;;;;5025085;28;20032;-56
2023/03/18 14:02:46;;;;;;;8.60;5.65;;;;;;;;;;5025365;28;20075;-59
2023/03/18 14:05:30;;;;;;;12.38;4.95;;;;;;;;;;5023799;28;20569;-59
2023/03/18 14:07:56;;;;;;;11.52;8.98;;;;;;;;;;5025217;28;20100;-60
2023/03/18 14:10:22;;;;;;;9.30;5.18;;;;;;;;;;5025028;28;20124;-58
2023/03/18 14:12:48;;;;;;;11.30;5.40;;;;;;;;;;5024978;28;20075;-58
2023/03/18 14:15:13;;;;;;;15.30;13.68;;;;;;;;;;5028354;28;20029;-59
2023/03/18 14:17:46;;;;;;;6.73;4.50;;;;;;;;;;5029134;28;20486;-59
2023/03/18 14:20:16;;;;;;;8.68;4.65;;;;;;;;;;5029101;28;20247;-59
2023/03/18 14:22:41;;;;;;;8.68;4.95;;;;;;;;;;5028964;28;20022;-59
2023/03/18 14:25:12;;;;;;;6.50;4.63;;;;;;;;;;5028607;28;20016;-59
2023/03/18 14:27:47;;;;;;;7.75;4.70;;;;;;;;;;5028892;28;20091;-58
2023/03/18 14:30:31;;;;;;;8.10;4.65;;;;;;;;;;5028706;28;20406;-59
2023/03/18 14:33:15;;;;;;;9.23;5.18;;;;;;;;;;5028695;28;20048;-58